createdAt,value
2019-02-06T06:09:31.198Z,38.60
2019-02-06T06:12:00.833Z,39.80
2019-02-06T06:14:30.504Z,39.80
2019-02-06T06:17:00.061Z,39.70
2019-02-06T06:19:29.157Z,39.70
2019-02-06T06:21:58.317Z,39.70
2019-02-06T06:24:27.808Z,39.50
2019-02-06T06:26:56.844Z,39.50
2019-02-06T06:29:25.881Z,39.40
2019-02-06T06:31:55.369Z,39.40
2019-02-06T06:34:24.858Z,39.30
2019-02-06T06:36:56.728Z,39.30
2019-02-06T06:39:24.083Z,39.30
2019-02-06T06:41:53.645Z,39.20
2019-02-06T06:44:22.861Z,39.20
2019-02-06T06:46:52.251Z,39.10
2019-02-06T06:49:21.747Z,39.10
2019-02-06T06:51:51.248Z,39.10
2019-02-06T06:54:21.236Z,39.00
2019-02-06T06:56:50.628Z,39.00
2019-02-06T06:59:20.143Z,39.10
2019-02-06T07:01:48.950Z,39.00
2019-02-06T07:04:18.463Z,39.00
2019-02-06T07:06:47.757Z,38.90
2019-02-06T07:09:16.736Z,39.00
2019-02-06T07:11:46.647Z,38.90
2019-02-06T07:14:16.256Z,38.90
2019-02-06T07:16:45.757Z,39.00
2019-02-06T07:19:14.872Z,38.90
2019-02-06T07:21:44.077Z,38.90
2019-02-06T07:24:13.583Z,39.60
2019-02-06T07:26:42.694Z,38.90
2019-02-06T07:29:11.772Z,39.10
2019-02-06T07:31:40.976Z,39.10
2019-02-06T07:34:09.715Z,39.10
2019-02-06T07:36:38.948Z,39.20
2019-02-06T07:39:08.992Z,39.30
2019-02-06T07:41:38.428Z,40.10
2019-02-06T07:46:36.768Z,40.30
2019-02-06T07:49:07.407Z,40.50
2019-02-06T07:51:36.554Z,40.80
2019-02-06T07:54:06.137Z,40.80
2019-02-06T07:56:34.705Z,40.80
2019-02-06T07:59:03.556Z,40.70
2019-02-06T08:01:33.805Z,40.60
2019-02-06T08:04:04.187Z,41.40
2019-02-06T08:06:33.656Z,40.90
2019-02-06T08:09:03.634Z,40.70
2019-02-06T08:11:32.379Z,40.80
2019-02-06T08:14:01.594Z,40.80
2019-02-06T08:16:30.830Z,40.90
2019-02-06T08:19:00.182Z,40.80
2019-02-06T08:21:31.139Z,40.80
2019-02-06T08:24:00.463Z,40.70
2019-02-06T08:26:29.822Z,40.60
2019-02-06T08:28:59.424Z,40.60
2019-02-06T08:31:29.884Z,40.60
2019-02-06T08:33:58.956Z,40.70
2019-02-06T08:36:28.914Z,40.70
2019-02-06T08:38:58.065Z,40.80
2019-02-06T08:41:27.499Z,40.80
2019-02-06T08:43:56.615Z,40.80
2019-02-06T08:46:25.640Z,40.90
2019-02-06T08:48:55.120Z,40.90
2019-02-06T08:51:24.246Z,40.90
2019-02-06T08:53:53.857Z,40.90
2019-02-06T08:56:23.616Z,40.90
2019-02-06T08:58:52.863Z,40.80
2019-02-06T09:01:22.317Z,40.70
2019-02-06T09:03:52.368Z,40.60
2019-02-06T09:06:21.156Z,40.80
2019-02-06T09:08:59.358Z,40.60
2019-02-06T09:11:19.809Z,40.40
2019-02-06T09:13:48.947Z,40.40
2019-02-06T09:16:18.164Z,40.50
2019-02-06T09:18:48.242Z,40.30
2019-02-06T09:21:17.820Z,40.10
2019-02-06T09:23:46.839Z,40.10
2019-02-06T09:26:16.358Z,40.00
2019-02-06T09:28:45.919Z,40.00
2019-02-06T09:31:14.927Z,39.80
2019-02-06T09:33:43.631Z,40.60
2019-02-06T09:36:13.679Z,39.80
2019-02-06T09:38:43.358Z,39.70
2019-02-06T09:41:12.461Z,39.60
2019-02-06T09:43:41.150Z,39.60
2019-02-06T09:46:11.776Z,39.50
2019-02-06T09:48:41.132Z,39.20
2019-02-06T09:51:10.275Z,39.10
2019-02-06T09:53:38.985Z,39.20
2019-02-06T09:56:09.239Z,39.00
2019-02-06T09:58:38.349Z,38.90
2019-02-06T10:01:07.791Z,38.80
2019-02-06T10:03:37.499Z,38.80
2019-02-06T10:06:06.718Z,38.80
2019-02-06T10:08:36.103Z,38.90
2019-02-06T10:11:05.231Z,38.90
2019-02-06T10:13:34.307Z,38.70
2019-02-06T10:16:03.564Z,38.80
2019-02-06T10:18:32.304Z,39.30
2019-02-06T10:21:01.580Z,38.60
2019-02-06T10:23:31.014Z,38.70
2019-02-06T10:26:00.104Z,38.70
2019-02-06T10:28:29.860Z,38.60
2019-02-06T10:30:59.364Z,38.40
2019-02-06T10:33:28.281Z,38.50
2019-02-06T10:35:58.016Z,38.50
2019-02-06T10:38:26.809Z,38.50
2019-02-06T10:40:56.296Z,38.40
2019-02-06T10:43:32.682Z,38.40
2019-02-06T10:45:54.979Z,38.40
2019-02-06T10:48:25.150Z,38.40
2019-02-06T10:50:58.225Z,38.40
2019-02-06T10:53:24.759Z,38.50
2019-02-06T10:55:53.951Z,38.50
2019-02-06T10:58:23.709Z,38.50
2019-02-06T11:00:55.203Z,38.60
2019-02-06T11:03:25.300Z,38.60
2019-02-06T11:05:54.826Z,38.70
2019-02-06T11:08:23.991Z,38.60
2019-02-06T11:10:53.353Z,38.50
2019-02-06T11:13:21.935Z,38.60
2019-02-06T11:15:51.058Z,38.70
2019-02-06T11:18:20.495Z,38.60
2019-02-06T11:20:49.625Z,38.90
2019-02-06T11:23:19.676Z,38.90
2019-02-06T11:25:49.400Z,39.00
2019-02-06T11:28:18.899Z,39.20
2019-02-06T11:30:48.071Z,39.90
2019-02-06T11:33:17.156Z,39.30
2019-02-06T11:35:46.368Z,39.40
2019-02-06T11:38:15.219Z,39.50
2019-02-06T11:40:45.729Z,39.40
2019-02-06T11:43:15.559Z,39.40
2019-02-06T11:45:45.445Z,39.40
2019-02-06T11:48:14.819Z,39.20
2019-02-06T11:50:45.028Z,39.40
2019-02-06T11:53:17.848Z,39.30
2019-02-06T11:55:46.940Z,39.30
2019-02-06T11:58:16.980Z,39.50
2019-02-06T12:00:55.700Z,39.40
2019-02-06T12:03:24.890Z,39.40
2019-02-06T12:05:54.060Z,39.30
2019-02-06T12:08:31.184Z,39.40
2019-02-06T12:10:59.299Z,39.30
2019-02-06T12:13:29.802Z,39.40
2019-02-06T12:15:59.752Z,39.70
2019-02-06T12:18:30.294Z,39.30
2019-02-06T12:20:59.415Z,39.30
2019-02-06T12:23:32.214Z,39.50
2019-02-06T12:25:58.378Z,39.60
2019-02-06T12:28:28.339Z,39.60
2019-02-06T12:30:57.748Z,39.70
2019-02-06T12:33:26.833Z,39.70
2019-02-06T12:35:56.264Z,39.90
2019-02-06T12:38:26.331Z,39.90
2019-02-06T12:40:55.200Z,39.70
2019-02-06T12:45:54.079Z,39.80
2019-02-06T12:48:23.680Z,39.70
2019-02-06T12:50:52.901Z,39.60
2019-02-06T12:53:22.349Z,39.60
2019-02-06T12:55:51.739Z,39.50
2019-02-06T12:58:21.264Z,39.50
2019-02-06T13:00:51.144Z,40.00
2019-02-06T13:05:50.286Z,39.30
2019-02-06T13:08:20.052Z,39.30
2019-02-06T13:10:49.597Z,39.30
2019-02-06T13:13:20.380Z,39.20
2019-02-06T13:15:50.404Z,39.10
2019-02-06T13:18:20.360Z,38.80
2019-02-06T13:20:51.457Z,38.90
2019-02-06T13:23:18.677Z,38.80
2019-02-06T13:25:49.489Z,38.90
2019-02-06T13:28:19.840Z,38.80
2019-02-06T13:30:48.531Z,38.80
2019-02-06T13:33:17.616Z,38.80
2019-02-06T13:35:47.248Z,38.70
2019-02-06T13:38:16.427Z,38.50
2019-02-06T13:40:46.242Z,38.80
2019-02-06T13:43:15.690Z,38.60
2019-02-06T13:45:46.368Z,38.40
2019-02-06T13:48:16.184Z,38.40
2019-02-06T13:50:45.013Z,38.40
2019-02-06T13:53:13.797Z,38.30
2019-02-06T13:55:43.069Z,38.40
2019-02-06T13:58:19.741Z,38.40
2019-02-06T14:00:41.699Z,38.40
2019-02-06T14:03:11.278Z,38.60
2019-02-06T14:05:40.096Z,38.50
2019-02-06T14:08:12.889Z,39.00
2019-02-06T14:10:44.003Z,38.40
2019-02-06T14:13:14.104Z,38.50
2019-02-06T14:15:48.368Z,38.60
2019-02-06T14:18:17.748Z,38.40
2019-02-06T14:20:49.784Z,38.50
2019-02-06T14:23:48.697Z,38.60
2019-02-06T14:26:32.001Z,38.50
2019-02-06T14:29:18.901Z,38.40
2019-02-06T14:32:59.920Z,38.50
2019-02-06T14:35:37.490Z,38.40
2019-02-06T14:38:26.841Z,38.40
2019-02-06T14:41:09.527Z,38.50
2019-02-06T14:43:58.364Z,38.50
2019-02-06T14:47:37.474Z,38.50
2019-02-06T14:53:00.906Z,38.50
2019-02-06T14:55:47.136Z,38.60
2019-02-06T14:58:33.356Z,38.50
2019-02-06T15:01:12.961Z,38.60
2019-02-06T15:03:55.508Z,38.60
2019-02-06T15:06:37.397Z,38.50
2019-02-06T15:10:22.892Z,38.60
2019-02-06T15:13:02.884Z,38.60
2019-02-06T15:16:41.270Z,38.50
2019-02-06T15:19:50.779Z,38.70
2019-02-06T15:22:41.484Z,38.70
2019-02-06T15:25:31.188Z,38.60
2019-02-06T15:28:13.723Z,38.70
2019-02-06T15:30:59.580Z,38.80
2019-02-06T15:33:45.539Z,38.70
2019-02-06T15:38:29.920Z,38.80
2019-02-06T15:41:10.152Z,39.50
2019-02-06T15:43:50.276Z,38.80
2019-02-06T15:46:53.436Z,39.60
2019-02-06T15:49:35.128Z,38.90
2019-02-06T15:53:17.907Z,38.90
2019-02-06T15:56:17.376Z,39.00
2019-02-06T15:59:57.339Z,39.40
2019-02-06T16:02:40.995Z,39.10
2019-02-06T16:05:30.252Z,39.00
2019-02-06T16:08:14.820Z,39.10
2019-02-06T16:11:15.205Z,39.20
2019-02-06T16:13:54.761Z,39.20
2019-02-06T16:16:37.315Z,39.20
2019-02-06T16:20:18.880Z,39.30
2019-02-06T16:23:39.720Z,40.00
2019-02-06T16:27:17.480Z,39.20
2019-02-06T16:34:12.202Z,39.30
2019-02-06T16:36:58.827Z,39.20
2019-02-06T16:39:41.577Z,39.20
2019-02-06T16:43:26.307Z,39.40
2019-02-06T16:46:06.180Z,39.40
2019-02-06T16:48:57.756Z,39.50
2019-02-06T16:51:37.512Z,39.50
2019-02-06T16:54:34.272Z,39.50
2019-02-06T16:58:18.857Z,39.60
2019-02-06T17:01:11.838Z,39.60
2019-02-06T17:05:55.876Z,39.60
2019-02-06T17:08:35.138Z,39.60
2019-02-06T17:11:17.140Z,39.50
2019-02-06T17:14:22.809Z,39.60
2019-02-06T17:19:13.595Z,39.80
2019-02-06T17:23:58.917Z,39.90
2019-02-06T17:26:42.837Z,40.30
2019-02-06T17:29:29.011Z,40.30
2019-02-06T17:33:14.417Z,40.40
2019-02-06T17:35:58.128Z,40.60
2019-02-06T17:39:53.821Z,40.80
2019-02-06T17:42:49.842Z,41.00
2019-02-06T17:45:36.330Z,40.90
2019-02-06T17:48:47.252Z,41.10
2019-02-06T17:52:33.771Z,41.60
2019-02-06T17:55:13.893Z,41.10
2019-02-06T17:57:43.780Z,41.20
2019-02-06T18:00:20.675Z,41.20
2019-02-06T18:02:49.453Z,41.20
2019-02-06T18:05:18.299Z,41.40
2019-02-06T18:07:48.468Z,41.40
2019-02-06T18:12:47.070Z,41.50
2019-02-06T18:15:16.202Z,41.50
2019-02-06T18:17:44.978Z,41.50
2019-02-06T18:20:15.383Z,41.70
2019-02-06T18:22:45.864Z,41.70
2019-02-06T18:25:14.881Z,41.60
2019-02-06T18:27:45.744Z,41.50
2019-02-06T18:30:17.106Z,41.60
2019-02-06T18:32:46.324Z,41.60
2019-02-06T18:35:15.496Z,41.60
2019-02-06T18:37:44.797Z,41.50
2019-02-06T18:40:13.816Z,41.50
2019-02-06T18:42:42.689Z,41.50
2019-02-06T18:45:13.793Z,41.60
2019-02-06T18:47:45.815Z,41.60
2019-02-06T18:50:17.836Z,41.60
2019-02-06T18:52:48.500Z,41.70
2019-02-06T18:55:17.916Z,41.70
2019-02-06T18:57:46.680Z,41.60
2019-02-06T19:00:20.657Z,41.80
2019-02-06T19:02:50.345Z,41.80
2019-02-06T19:05:20.625Z,41.80
2019-02-06T19:07:50.017Z,41.80
2019-02-06T19:10:19.372Z,41.80
2019-02-06T19:12:50.705Z,41.90
2019-02-06T19:15:17.853Z,42.00
2019-02-06T19:17:47.140Z,41.80
2019-02-06T19:20:17.725Z,41.80
2019-02-06T19:22:46.511Z,41.90
2019-02-06T19:25:15.441Z,41.90
2019-02-06T19:27:44.472Z,41.90
2019-02-06T19:30:21.733Z,41.90
2019-02-06T19:32:52.051Z,41.70
2019-02-06T19:35:21.833Z,41.80
2019-02-06T19:37:51.347Z,41.90
2019-02-06T19:40:20.765Z,41.80
2019-02-06T19:43:00.107Z,41.90
2019-02-06T19:45:19.496Z,41.90
2019-02-06T19:47:51.576Z,41.90
2019-02-06T19:50:23.262Z,42.50
2019-02-06T19:52:54.693Z,41.80
2019-02-06T19:55:22.810Z,41.70
2019-02-06T19:57:52.943Z,41.70
2019-02-06T20:00:25.472Z,41.70
2019-02-06T20:02:55.189Z,41.70
2019-02-06T20:05:24.362Z,41.70
2019-02-06T20:07:53.984Z,41.70
2019-02-06T20:10:26.808Z,41.70
2019-02-06T20:12:56.111Z,41.80
2019-02-06T20:15:26.159Z,41.80
2019-02-06T20:17:55.408Z,41.60
2019-02-06T20:20:25.005Z,41.70
2019-02-06T20:22:55.439Z,41.60
2019-02-06T20:25:24.512Z,41.60
2019-02-06T20:27:53.544Z,41.60
2019-02-06T20:30:24.983Z,41.70
2019-02-06T20:32:55.028Z,41.70
2019-02-06T20:35:24.405Z,42.50
2019-02-06T20:37:53.648Z,41.70
2019-02-06T20:40:26.007Z,41.80
2019-02-06T20:42:55.412Z,41.80
2019-02-06T20:45:24.222Z,41.80
2019-02-06T20:47:53.373Z,41.70
2019-02-06T20:50:25.019Z,41.70
2019-02-06T20:52:54.993Z,41.80
2019-02-06T20:55:24.574Z,41.80
2019-02-06T20:57:53.896Z,42.10
2019-02-06T21:00:25.736Z,41.70
2019-02-06T21:02:54.699Z,41.80
2019-02-06T21:05:24.039Z,41.80
2019-02-06T21:07:54.033Z,41.80
2019-02-06T21:10:24.452Z,41.80
2019-02-06T21:12:53.360Z,41.80
2019-02-06T21:15:22.500Z,41.90
2019-02-06T21:17:51.776Z,41.80
2019-02-06T21:20:21.473Z,42.00
2019-02-06T21:22:51.766Z,41.90
2019-02-06T21:25:21.320Z,41.80
2019-02-06T21:27:50.992Z,41.90
2019-02-06T21:30:25.087Z,41.90
2019-02-06T21:32:54.516Z,41.80
2019-02-06T21:35:23.465Z,41.80
2019-02-06T21:37:53.142Z,41.90
2019-02-06T21:40:24.167Z,41.90
2019-02-06T21:42:53.802Z,41.90
2019-02-06T21:45:23.096Z,41.90
2019-02-06T21:47:52.347Z,42.00
2019-02-06T21:50:22.939Z,41.90
2019-02-06T21:52:52.012Z,42.00
2019-02-06T21:55:21.587Z,42.00
